createdAt,value
2019-03-26T00:00:29.014Z,3.80
2019-03-26T00:02:57.538Z,4.53
2019-03-26T00:05:25.975Z,4.33
2019-03-26T00:07:54.457Z,4.40
2019-03-26T00:10:22.947Z,5.17
2019-03-26T00:12:51.387Z,4.37
2019-03-26T00:15:20.611Z,4.47
2019-03-26T00:17:49.048Z,4.10
2019-03-26T00:20:17.507Z,4.20
2019-03-26T00:22:45.949Z,4.33
2019-03-26T00:25:14.386Z,3.73
2019-03-26T00:27:42.868Z,4.27
2019-03-26T00:30:11.740Z,3.90
2019-03-26T00:32:40.191Z,4.60
2019-03-26T00:35:08.631Z,4.93
2019-03-26T00:37:37.116Z,4.57
2019-03-26T00:40:06.207Z,4.53
2019-03-26T00:42:34.755Z,4.27
2019-03-26T00:45:03.245Z,4.73
2019-03-26T00:47:31.703Z,4.27
2019-03-26T00:50:00.236Z,4.60
2019-03-26T00:52:28.654Z,4.63
2019-03-26T00:54:57.134Z,4.83
2019-03-26T00:57:25.595Z,4.50
2019-03-26T00:59:54.056Z,4.60
2019-03-26T01:02:22.578Z,5.50
2019-03-26T01:04:51.020Z,5.27
2019-03-26T01:07:19.507Z,4.97
2019-03-26T01:09:47.947Z,4.87
2019-03-26T01:12:16.396Z,4.93
2019-03-26T01:14:44.856Z,6.37
2019-03-26T01:17:13.291Z,5.73
2019-03-26T01:19:41.736Z,5.20
2019-03-26T01:22:10.171Z,6.27
2019-03-26T01:24:38.635Z,6.17
2019-03-26T01:27:07.053Z,5.90
2019-03-26T01:29:35.583Z,5.93
2019-03-26T01:32:04.029Z,5.60
2019-03-26T01:34:45.227Z,6.03
2019-03-26T01:37:02.710Z,6.03
2019-03-26T01:39:31.149Z,5.73
2019-03-26T01:41:59.587Z,6.20
2019-03-26T01:44:28.076Z,9.20
2019-03-26T01:46:56.511Z,6.33
2019-03-26T01:49:24.963Z,6.27
2019-03-26T01:51:53.401Z,6.43
2019-03-26T01:54:21.862Z,5.93
2019-03-26T01:56:50.848Z,5.20
2019-03-26T01:59:19.283Z,5.97
2019-03-26T02:01:47.743Z,6.57
2019-03-26T02:04:16.227Z,5.60
2019-03-26T02:06:44.683Z,5.97
2019-03-26T02:09:13.110Z,6.07
2019-03-26T02:11:41.568Z,6.57
2019-03-26T02:14:10.003Z,5.80
2019-03-26T02:16:38.487Z,7.37
2019-03-26T02:19:06.923Z,8.07
2019-03-26T02:21:35.378Z,7.13
2019-03-26T02:24:03.983Z,8.00
2019-03-26T02:26:32.438Z,8.83
2019-03-26T02:29:00.873Z,7.80
2019-03-26T02:31:29.327Z,7.73
2019-03-26T02:33:57.787Z,7.30
2019-03-26T02:36:26.300Z,8.70
2019-03-26T02:38:54.731Z,8.60
2019-03-26T02:41:23.194Z,8.37
2019-03-26T02:43:51.626Z,9.07
2019-03-26T02:46:20.975Z,8.67
2019-03-26T02:48:49.437Z,9.83
2019-03-26T02:51:17.966Z,9.60
2019-03-26T02:53:46.437Z,9.33
2019-03-26T02:56:14.950Z,9.30
2019-03-26T02:58:46.047Z,8.93
2019-03-26T03:01:14.487Z,9.47
2019-03-26T03:03:42.942Z,8.70
2019-03-26T03:06:11.948Z,8.50
2019-03-26T03:08:40.400Z,8.40
2019-03-26T03:11:08.831Z,9.10
2019-03-26T03:13:37.394Z,9.50
2019-03-26T03:16:05.948Z,8.80
2019-03-26T03:18:34.428Z,9.60
2019-03-26T03:21:02.934Z,9.67
2019-03-26T03:23:31.455Z,10.27
2019-03-26T03:25:59.883Z,8.03
2019-03-26T03:28:28.358Z,9.17
2019-03-26T03:30:56.819Z,7.77
2019-03-26T03:33:25.334Z,7.20
2019-03-26T03:35:53.768Z,8.10
2019-03-26T03:38:22.229Z,9.03
2019-03-26T03:40:51.099Z,10.77
2019-03-26T03:43:19.567Z,8.40
2019-03-26T03:45:48.440Z,7.60
2019-03-26T03:48:17.586Z,8.90
2019-03-26T03:50:46.264Z,9.13
2019-03-26T03:53:16.709Z,9.80
2019-03-26T03:55:45.236Z,9.13
2019-03-26T03:58:15.945Z,9.50
2019-03-26T04:00:44.458Z,9.03
2019-03-26T04:03:12.975Z,9.77
2019-03-26T04:05:41.427Z,9.23
2019-03-26T04:08:09.852Z,9.60
2019-03-26T04:10:38.312Z,11.03
2019-03-26T04:13:06.855Z,10.60
2019-03-26T04:15:35.493Z,9.77
2019-03-26T04:18:04.365Z,9.23
2019-03-26T04:20:32.904Z,9.87
2019-03-26T04:23:01.331Z,10.37
2019-03-26T04:25:29.750Z,10.50
2019-03-26T04:27:58.202Z,11.20
2019-03-26T04:30:30.599Z,11.07
2019-03-26T04:32:59.171Z,10.63
2019-03-26T04:35:27.621Z,10.93
2019-03-26T04:37:56.243Z,10.97
2019-03-26T04:40:24.750Z,10.60
2019-03-26T04:42:53.226Z,12.80
2019-03-26T04:45:21.724Z,10.20
2019-03-26T04:47:51.096Z,12.93
2019-03-26T04:50:19.530Z,12.27
2019-03-26T04:52:47.990Z,11.77
2019-03-26T04:55:16.497Z,13.37
2019-03-26T04:57:44.947Z,13.47
2019-03-26T05:00:13.364Z,12.57
2019-03-26T05:02:41.829Z,13.07
2019-03-26T05:05:12.427Z,12.97
2019-03-26T05:07:40.436Z,12.73
2019-03-26T05:10:09.136Z,14.23
2019-03-26T05:12:37.601Z,13.37
2019-03-26T05:15:06.098Z,15.73
2019-03-26T05:17:34.544Z,13.93
2019-03-26T05:20:02.985Z,15.67
2019-03-26T05:22:31.433Z,16.03
2019-03-26T05:24:59.865Z,15.23
2019-03-26T05:27:28.311Z,15.63
2019-03-26T05:29:56.776Z,14.07
2019-03-26T05:32:25.196Z,15.37
2019-03-26T05:34:53.648Z,15.50
2019-03-26T05:37:22.090Z,15.40
2019-03-26T05:39:51.390Z,14.60
2019-03-26T05:42:19.831Z,14.70
2019-03-26T05:44:48.292Z,12.80
2019-03-26T05:47:16.736Z,14.10
2019-03-26T05:49:45.212Z,13.73
2019-03-26T05:52:13.659Z,12.63
2019-03-26T05:54:42.123Z,13.17
2019-03-26T05:57:10.563Z,13.37
2019-03-26T05:59:39.033Z,11.83
2019-03-26T06:02:14.187Z,12.53
2019-03-26T06:04:37.651Z,12.07
2019-03-26T06:07:06.088Z,12.03
2019-03-26T06:09:34.537Z,10.87
2019-03-26T06:12:02.982Z,10.83
2019-03-26T06:14:31.422Z,11.50
2019-03-26T06:16:59.853Z,11.07
2019-03-26T06:19:28.311Z,10.30
2019-03-26T06:21:56.755Z,11.63
2019-03-26T06:24:25.225Z,10.53
2019-03-26T06:26:53.688Z,10.70
2019-03-26T06:29:22.152Z,10.33
2019-03-26T06:31:51.534Z,8.90
2019-03-26T06:34:20.069Z,9.00
2019-03-26T06:36:48.584Z,9.00
2019-03-26T06:39:17.040Z,7.70
2019-03-26T06:41:45.502Z,8.97
2019-03-26T06:44:13.936Z,8.30
2019-03-26T06:46:42.359Z,8.97
2019-03-26T06:49:10.796Z,8.40
2019-03-26T06:51:39.220Z,8.00
2019-03-26T06:54:07.680Z,7.43
2019-03-26T06:56:36.118Z,7.93
2019-03-26T06:59:04.553Z,7.93
2019-03-26T07:01:33.020Z,7.50
2019-03-26T07:04:01.795Z,7.47
2019-03-26T07:06:30.228Z,6.90
2019-03-26T07:08:58.683Z,7.63
2019-03-26T07:11:27.105Z,8.17
2019-03-26T07:13:55.566Z,8.77
2019-03-26T07:16:24.886Z,9.03
2019-03-26T07:18:53.402Z,11.33
2019-03-26T07:21:21.826Z,13.83
2019-03-26T07:23:50.283Z,12.40
2019-03-26T07:26:18.791Z,11.40
2019-03-26T07:28:47.233Z,16.90
2019-03-26T07:31:15.661Z,14.17
2019-03-26T07:33:44.093Z,15.73
2019-03-26T07:36:12.543Z,16.20
2019-03-26T07:38:40.988Z,15.20
2019-03-26T07:41:09.471Z,14.33
2019-03-26T07:43:37.951Z,18.87
2019-03-26T07:46:06.407Z,18.63
2019-03-26T07:48:34.849Z,16.17
2019-03-26T07:51:03.286Z,17.17
2019-03-26T07:53:31.726Z,18.70
2019-03-26T07:56:00.219Z,16.13
2019-03-26T07:58:28.689Z,19.50
2019-03-26T08:00:57.148Z,18.03
2019-03-26T08:03:25.576Z,17.57
2019-03-26T08:05:54.035Z,16.23
2019-03-26T08:08:22.465Z,19.13
2019-03-26T08:10:51.732Z,15.63
2019-03-26T08:13:20.190Z,14.70
2019-03-26T08:15:48.693Z,14.77
2019-03-26T08:18:17.117Z,15.73
2019-03-26T08:20:45.564Z,14.67
2019-03-26T08:23:13.990Z,13.13
2019-03-26T08:25:42.441Z,13.07
2019-03-26T08:28:10.883Z,11.53
2019-03-26T08:30:39.347Z,10.07
2019-03-26T08:33:07.867Z,9.97
2019-03-26T08:35:36.276Z,10.47
2019-03-26T08:38:12.432Z,10.27
2019-03-26T08:40:34.898Z,9.03
2019-03-26T08:43:03.409Z,8.67
2019-03-26T08:45:31.838Z,7.50
2019-03-26T08:48:00.301Z,9.23
2019-03-26T08:50:28.776Z,7.63
2019-03-26T08:52:57.235Z,6.90
2019-03-26T08:55:25.660Z,6.90
2019-03-26T08:57:54.123Z,7.10
2019-03-26T09:00:22.544Z,7.40
2019-03-26T09:02:51.813Z,7.07
2019-03-26T09:05:20.237Z,6.63
2019-03-26T09:07:48.699Z,7.60
2019-03-26T09:10:17.299Z,6.30
2019-03-26T09:12:45.741Z,6.70
2019-03-26T09:15:15.448Z,6.43
2019-03-26T09:17:44.692Z,5.50
2019-03-26T09:20:13.939Z,4.87
2019-03-26T09:22:42.371Z,5.43
2019-03-26T09:25:11.372Z,4.33
2019-03-26T09:27:39.843Z,5.17
2019-03-26T09:30:10.329Z,4.73
2019-03-26T09:32:39.584Z,4.50
2019-03-26T09:35:09.470Z,5.60
2019-03-26T09:37:37.906Z,5.73
2019-03-26T09:40:10.089Z,5.53
2019-03-26T09:42:38.977Z,5.43
2019-03-26T09:45:09.728Z,4.67
2019-03-26T09:47:38.300Z,4.10
2019-03-26T09:50:08.572Z,4.83
2019-03-26T09:52:37.008Z,4.10
2019-03-26T09:55:08.928Z,3.97
2019-03-26T09:57:37.599Z,3.77
2019-03-26T10:00:11.009Z,3.60
2019-03-26T10:02:42.755Z,3.23
2019-03-26T10:05:09.831Z,3.87
2019-03-26T10:07:38.253Z,3.13
2019-03-26T10:10:08.343Z,3.57
2019-03-26T10:12:36.779Z,3.03
2019-03-26T10:15:06.569Z,3.93
2019-03-26T10:17:35.017Z,2.87
2019-03-26T10:20:05.211Z,3.00
2019-03-26T10:22:33.637Z,3.03
2019-03-26T10:25:02.106Z,2.70
2019-03-26T10:27:30.585Z,3.10
2019-03-26T10:29:59.102Z,2.70
2019-03-26T10:32:27.520Z,2.60
2019-03-26T10:34:55.979Z,2.20
2019-03-26T10:37:24.960Z,2.93
2019-03-26T10:39:53.424Z,2.33
2019-03-26T10:42:22.017Z,2.37
2019-03-26T10:44:50.439Z,2.57
2019-03-26T10:47:18.901Z,2.60
2019-03-26T10:49:47.331Z,2.43
2019-03-26T10:52:15.779Z,2.63
2019-03-26T10:54:44.214Z,2.63
2019-03-26T10:57:12.699Z,2.33
2019-03-26T10:59:41.135Z,2.50
2019-03-26T11:02:09.591Z,3.07
2019-03-26T11:04:38.054Z,2.47
2019-03-26T11:07:06.487Z,3.00
2019-03-26T11:09:34.925Z,1.90
2019-03-26T11:12:03.456Z,2.47
2019-03-26T11:14:32.036Z,2.20
2019-03-26T11:17:00.503Z,2.30
2019-03-26T11:19:28.921Z,2.13
2019-03-26T11:21:57.383Z,2.20
2019-03-26T11:24:25.952Z,2.00
2019-03-26T11:26:54.448Z,2.50
2019-03-26T11:29:22.886Z,1.90
2019-03-26T11:31:52.135Z,2.40
2019-03-26T11:34:20.650Z,2.97
2019-03-26T11:36:49.087Z,2.07
2019-03-26T11:39:17.550Z,1.90
2019-03-26T11:41:46.005Z,2.20
2019-03-26T11:44:14.447Z,2.33
2019-03-26T11:46:42.904Z,2.30
2019-03-26T11:49:11.323Z,2.87
2019-03-26T11:51:39.775Z,2.07
2019-03-26T11:54:08.192Z,2.70
2019-03-26T11:56:36.643Z,2.80
2019-03-26T11:59:05.081Z,2.30
2019-03-26T12:01:33.600Z,2.40
2019-03-26T12:04:02.032Z,2.37
2019-03-26T12:06:30.478Z,2.53
2019-03-26T12:08:58.905Z,2.70
2019-03-26T12:11:27.348Z,2.83
2019-03-26T12:13:55.854Z,2.93
2019-03-26T12:16:24.319Z,2.50
2019-03-26T12:18:52.766Z,3.03
2019-03-26T12:21:22.200Z,2.10
2019-03-26T12:23:50.617Z,3.10
2019-03-26T12:26:19.063Z,2.50
2019-03-26T12:28:47.476Z,3.50
2019-03-26T12:31:15.925Z,3.20
2019-03-26T12:33:44.362Z,3.30
2019-03-26T12:36:12.827Z,3.30
2019-03-26T12:38:41.246Z,2.60
2019-03-26T12:41:09.701Z,2.80
2019-03-26T12:43:38.159Z,2.53
2019-03-26T12:46:06.645Z,2.50
2019-03-26T12:48:35.116Z,2.67
2019-03-26T12:51:03.539Z,3.00
2019-03-26T12:53:31.983Z,2.57
2019-03-26T12:56:00.420Z,2.47
2019-03-26T12:58:32.207Z,2.37
2019-03-26T13:00:59.003Z,2.50
2019-03-26T13:03:27.449Z,3.13
2019-03-26T13:05:55.876Z,3.37
2019-03-26T13:08:24.315Z,2.93
2019-03-26T13:10:54.165Z,2.30
2019-03-26T13:13:22.775Z,3.63
2019-03-26T13:15:51.224Z,3.20
2019-03-26T13:18:19.723Z,3.47
2019-03-26T13:20:48.155Z,3.57
2019-03-26T13:23:16.596Z,3.27
2019-03-26T13:25:45.053Z,3.00
2019-03-26T13:28:13.512Z,2.20
2019-03-26T13:30:41.920Z,2.47
2019-03-26T13:33:10.367Z,2.60
2019-03-26T13:35:38.802Z,3.00
2019-03-26T13:38:07.269Z,2.90
2019-03-26T13:40:35.710Z,2.97
2019-03-26T13:43:04.120Z,2.67
2019-03-26T13:45:32.993Z,2.77
2019-03-26T13:48:01.475Z,2.23
2019-03-26T13:50:29.957Z,2.70
2019-03-26T13:52:58.399Z,2.93
2019-03-26T13:55:26.857Z,2.83
2019-03-26T13:57:55.291Z,2.57
2019-03-26T14:00:34.032Z,2.60
2019-03-26T14:03:02.533Z,2.73
2019-03-26T14:05:30.989Z,2.77
2019-03-26T14:07:59.478Z,2.83
2019-03-26T14:10:40.121Z,2.20
2019-03-26T14:12:58.066Z,2.67
2019-03-26T14:15:26.519Z,2.30
2019-03-26T14:17:55.007Z,2.80
2019-03-26T14:20:23.472Z,2.37
2019-03-26T14:22:52.551Z,2.40
2019-03-26T14:25:20.972Z,2.03
2019-03-26T14:27:49.496Z,2.13
2019-03-26T14:30:21.017Z,2.10
2019-03-26T14:32:49.540Z,3.00
2019-03-26T14:35:17.970Z,3.07
2019-03-26T14:37:51.603Z,2.10
2019-03-26T14:40:16.551Z,2.90
2019-03-26T14:42:45.037Z,3.03
2019-03-26T14:45:13.764Z,3.10
2019-03-26T14:47:42.236Z,2.87
2019-03-26T14:50:10.801Z,3.43
2019-03-26T14:52:39.269Z,2.83
2019-03-26T14:55:07.930Z,3.70
2019-03-26T14:57:36.425Z,3.57
2019-03-26T15:00:07.128Z,3.43
2019-03-26T15:02:35.607Z,3.73
2019-03-26T15:05:05.319Z,4.40
2019-03-26T15:07:33.740Z,3.57
2019-03-26T15:10:02.187Z,3.40
2019-03-26T15:12:30.619Z,3.90
2019-03-26T15:14:59.061Z,4.00
2019-03-26T15:17:27.483Z,3.90
2019-03-26T15:19:55.947Z,3.87
2019-03-26T15:22:24.376Z,4.07
2019-03-26T15:24:52.859Z,4.40
2019-03-26T15:27:21.338Z,3.70
2019-03-26T15:29:49.952Z,4.03
2019-03-26T15:32:18.433Z,3.40
2019-03-26T15:34:46.896Z,3.50
2019-03-26T15:37:15.336Z,3.37
2019-03-26T15:39:43.810Z,3.70
2019-03-26T15:42:12.304Z,3.20
2019-03-26T15:44:40.732Z,3.40
2019-03-26T15:47:09.356Z,3.00
2019-03-26T15:49:37.817Z,2.80
2019-03-26T15:52:06.349Z,3.30
2019-03-26T15:54:34.856Z,3.43
2019-03-26T15:57:03.305Z,2.87
2019-03-26T15:59:31.803Z,3.10
2019-03-26T16:02:00.232Z,2.73
2019-03-26T16:04:28.691Z,2.87
2019-03-26T16:06:57.113Z,3.00
2019-03-26T16:09:25.684Z,3.00
2019-03-26T16:11:54.215Z,2.90
2019-03-26T16:14:22.769Z,2.10
2019-03-26T16:16:51.240Z,2.50
2019-03-26T16:19:32.049Z,2.00
2019-03-26T16:21:49.863Z,2.77
2019-03-26T16:24:18.361Z,2.40
2019-03-26T16:26:46.815Z,2.20
2019-03-26T16:29:15.265Z,2.37
2019-03-26T16:31:43.708Z,2.57
2019-03-26T16:34:12.171Z,2.10
2019-03-26T16:36:40.613Z,2.33
2019-03-26T16:39:09.135Z,2.30
2019-03-26T16:41:48.512Z,2.60
2019-03-26T16:44:07.769Z,2.60
2019-03-26T16:46:36.567Z,2.70
2019-03-26T16:49:05.049Z,2.40
2019-03-26T16:51:33.499Z,2.77
2019-03-26T16:54:01.940Z,2.13
2019-03-26T16:56:30.400Z,3.37
2019-03-26T16:58:58.848Z,2.53
2019-03-26T17:01:27.301Z,2.60
2019-03-26T17:03:55.729Z,2.13
2019-03-26T17:06:24.219Z,2.47
2019-03-26T17:08:52.935Z,2.00
2019-03-26T17:11:21.428Z,2.37
2019-03-26T17:13:49.908Z,2.30
2019-03-26T17:16:18.328Z,2.20
2019-03-26T17:18:46.791Z,2.13
2019-03-26T17:21:18.256Z,2.17
2019-03-26T17:23:45.395Z,2.47
2019-03-26T17:26:15.480Z,2.50
2019-03-26T17:28:44.168Z,2.50
2019-03-26T17:31:12.585Z,2.47
2019-03-26T17:33:41.072Z,1.90
2019-03-26T17:36:09.498Z,2.67
2019-03-26T17:38:37.927Z,2.50
2019-03-26T17:41:06.417Z,2.60
2019-03-26T17:43:34.837Z,3.30
2019-03-26T17:46:03.295Z,2.73
2019-03-26T17:48:31.794Z,3.37
2019-03-26T17:51:00.249Z,3.10
2019-03-26T17:53:28.747Z,2.60
2019-03-26T17:55:57.224Z,3.13
2019-03-26T17:58:25.649Z,3.00
2019-03-26T18:00:54.100Z,2.70
2019-03-26T18:03:26.671Z,2.93
2019-03-26T18:05:53.233Z,3.10
2019-03-26T18:08:21.672Z,3.03
2019-03-26T18:10:50.197Z,3.27
2019-03-26T18:13:18.625Z,3.00
2019-03-26T18:15:47.068Z,3.10
2019-03-26T18:18:15.508Z,3.57
2019-03-26T18:20:43.968Z,3.17
2019-03-26T18:23:12.449Z,3.80
2019-03-26T18:25:40.992Z,3.83
2019-03-26T18:28:09.427Z,3.30
2019-03-26T18:30:37.924Z,3.60
2019-03-26T18:33:06.355Z,3.63
2019-03-26T18:35:34.816Z,3.60
2019-03-26T18:38:03.259Z,3.00
2019-03-26T18:40:31.757Z,3.67
2019-03-26T18:43:00.196Z,3.77
2019-03-26T18:45:28.621Z,3.80
2019-03-26T18:47:57.083Z,3.30
2019-03-26T18:50:25.558Z,3.83
2019-03-26T18:52:54.003Z,4.23
2019-03-26T18:55:25.258Z,3.83
2019-03-26T18:57:53.343Z,4.17
2019-03-26T19:00:32.615Z,4.60
2019-03-26T19:03:01.129Z,4.13
2019-03-26T19:05:29.831Z,4.03
2019-03-26T19:07:58.331Z,4.67
2019-03-26T19:10:29.290Z,3.77
2019-03-26T19:12:57.798Z,4.20
2019-03-26T19:15:26.488Z,4.33
2019-03-26T19:17:54.935Z,3.93
2019-03-26T19:20:23.429Z,3.73
2019-03-26T19:22:51.848Z,4.10
2019-03-26T19:25:20.317Z,4.43
2019-03-26T19:27:48.751Z,4.17
2019-03-26T19:30:17.211Z,4.00
2019-03-26T19:32:45.644Z,4.23
2019-03-26T19:35:14.103Z,3.67
2019-03-26T19:37:42.531Z,3.53
2019-03-26T19:40:11.934Z,4.37
2019-03-26T19:42:40.358Z,4.93
2019-03-26T19:45:09.243Z,3.93
2019-03-26T19:47:37.675Z,4.53
2019-03-26T19:50:27.057Z,4.40
2019-03-26T19:52:55.487Z,4.40
2019-03-26T19:55:23.932Z,4.00
2019-03-26T19:57:53.273Z,4.40
2019-03-26T20:00:22.548Z,4.83
2019-03-26T20:02:50.973Z,5.03
2019-03-26T20:05:19.421Z,4.20
2019-03-26T20:07:47.925Z,4.17
2019-03-26T20:10:16.547Z,3.57
2019-03-26T20:12:45.024Z,4.13
2019-03-26T20:15:13.929Z,4.80
2019-03-26T20:17:42.345Z,4.87
2019-03-26T20:20:11.435Z,4.87
2019-03-26T20:22:39.865Z,4.43
2019-03-26T20:25:08.864Z,4.20
2019-03-26T20:27:37.303Z,4.23
2019-03-26T20:30:09.049Z,4.40
2019-03-26T20:32:37.515Z,3.87
2019-03-26T20:35:07.439Z,4.10
2019-03-26T20:37:35.891Z,4.10
2019-03-26T20:40:09.445Z,4.40
2019-03-26T20:42:38.416Z,3.90
2019-03-26T20:45:08.500Z,4.37
2019-03-26T20:47:36.954Z,5.43
2019-03-26T20:50:07.931Z,3.93
2019-03-26T20:52:36.372Z,4.37
2019-03-26T20:55:07.634Z,4.43
2019-03-26T20:57:36.219Z,4.27
2019-03-26T21:00:08.053Z,3.93
2019-03-26T21:02:36.540Z,4.43
2019-03-26T21:05:07.306Z,4.20
2019-03-26T21:07:36.681Z,4.03
2019-03-26T21:10:07.272Z,4.13
2019-03-26T21:12:35.724Z,3.53
2019-03-26T21:15:06.466Z,3.67
2019-03-26T21:17:34.909Z,4.00
2019-03-26T21:20:04.415Z,3.50
2019-03-26T21:22:32.875Z,3.57
2019-03-26T21:25:01.364Z,3.83
2019-03-26T21:27:29.831Z,4.53
2019-03-26T21:30:10.234Z,3.87
2019-03-26T21:32:28.416Z,3.57
2019-03-26T21:34:56.944Z,3.70
2019-03-26T21:37:25.490Z,3.57
2019-03-26T21:39:53.994Z,3.90
2019-03-26T21:42:22.439Z,4.10
2019-03-26T21:44:50.875Z,3.60
2019-03-26T21:47:19.331Z,3.53
2019-03-26T21:49:48.581Z,3.63
2019-03-26T21:52:17.197Z,3.40
2019-03-26T21:54:45.630Z,3.20
2019-03-26T21:57:14.078Z,3.83
2019-03-26T21:59:42.519Z,3.23
2019-03-26T22:02:10.956Z,3.77
2019-03-26T22:04:39.394Z,3.17
2019-03-26T22:07:07.812Z,3.13
2019-03-26T22:09:36.252Z,4.00
2019-03-26T22:12:04.750Z,3.63
2019-03-26T22:14:33.202Z,3.33
2019-03-26T22:17:01.643Z,3.47
2019-03-26T22:19:30.089Z,3.23
2019-03-26T22:21:58.533Z,3.93
2019-03-26T22:24:27.011Z,3.30
2019-03-26T22:26:55.523Z,2.90
2019-03-26T22:29:24.059Z,3.60
2019-03-26T22:31:52.569Z,3.50
2019-03-26T22:34:20.995Z,3.50
2019-03-26T22:36:49.512Z,3.43
2019-03-26T22:39:17.986Z,3.50
2019-03-26T22:41:46.423Z,3.50
2019-03-26T22:44:14.890Z,3.70
2019-03-26T22:46:43.334Z,4.07
2019-03-26T22:49:11.783Z,3.97
2019-03-26T22:51:40.217Z,3.07
2019-03-26T22:54:08.671Z,4.30
2019-03-26T22:56:37.092Z,3.87
2019-03-26T22:59:05.545Z,3.73
2019-03-26T23:01:33.981Z,3.80
2019-03-26T23:04:02.439Z,3.77
2019-03-26T23:06:30.944Z,3.87
2019-03-26T23:08:59.390Z,3.97
2019-03-26T23:11:27.808Z,4.30
2019-03-26T23:13:56.267Z,4.37
2019-03-26T23:16:24.703Z,3.60
2019-03-26T23:18:53.806Z,4.07
2019-03-26T23:21:22.341Z,3.90
2019-03-26T23:23:50.789Z,4.57
2019-03-26T23:26:19.204Z,3.70
2019-03-26T23:28:47.650Z,4.00
2019-03-26T23:31:16.093Z,4.03
2019-03-26T23:33:44.522Z,3.70
2019-03-26T23:36:12.977Z,3.93
2019-03-26T23:38:41.458Z,3.50
2019-03-26T23:41:09.877Z,4.13
2019-03-26T23:43:38.346Z,3.67
2019-03-26T23:46:06.771Z,3.90
2019-03-26T23:48:35.212Z,4.23
2019-03-26T23:51:03.713Z,3.97
2019-03-26T23:53:32.221Z,3.80
2019-03-26T23:56:00.632Z,4.60
2019-03-26T23:58:29.085Z,4.83
